sensor_id;sensor_type;location;lat;lon;timestamp;P1;durP1;ratioP1;P2;durP2;ratioP2
53781;SDS011;39692;53.114;7.060;2022-08-30T00:02:30;7.40;;;4.50;;
53781;SDS011;39692;53.114;7.060;2022-08-30T00:04:55;6.35;;;4.10;;
53781;SDS011;39692;53.114;7.060;2022-08-30T00:07:25;4.68;;;4.15;;
53781;SDS011;39692;53.114;7.060;2022-08-30T00:09:50;5.18;;;4.40;;
53781;SDS011;39692;53.114;7.060;2022-08-30T00:12:16;7.45;;;4.15;;
53781;SDS011;39692;53.114;7.060;2022-08-30T00:14:44;5.43;;;4.28;;
53781;SDS011;39692;53.114;7.060;2022-08-30T00:17:09;6.63;;;4.60;;
53781;SDS011;39692;53.114;7.060;2022-08-30T00:19:35;5.63;;;4.43;;
53781;SDS011;39692;53.114;7.060;2022-08-30T00:22:02;6.03;;;4.60;;
53781;SDS011;39692;53.114;7.060;2022-08-30T00:24:28;5.57;;;4.93;;
53781;SDS011;39692;53.114;7.060;2022-08-30T00:26:53;6.70;;;5.03;;
53781;SDS011;39692;53.114;7.060;2022-08-30T00:29:19;6.88;;;4.93;;
53781;SDS011;39692;53.114;7.060;2022-08-30T00:31:45;5.30;;;4.18;;
53781;SDS011;39692;53.114;7.060;2022-08-30T00:34:10;6.40;;;4.60;;
53781;SDS011;39692;53.114;7.060;2022-08-30T00:36:36;8.93;;;5.18;;
53781;SDS011;39692;53.114;7.060;2022-08-30T00:39:02;6.35;;;4.63;;
53781;SDS011;39692;53.114;7.060;2022-08-30T00:41:28;5.15;;;3.85;;
53781;SDS011;39692;53.114;7.060;2022-08-30T00:43:53;6.70;;;4.35;;
53781;SDS011;39692;53.114;7.060;2022-08-30T00:46:19;6.47;;;4.88;;
53781;SDS011;39692;53.114;7.060;2022-08-30T00:48:45;6.20;;;4.47;;
53781;SDS011;39692;53.114;7.060;2022-08-30T00:51:13;6.05;;;4.53;;
53781;SDS011;39692;53.114;7.060;2022-08-30T00:53:43;5.23;;;4.53;;
53781;SDS011;39692;53.114;7.060;2022-08-30T00:56:13;5.18;;;4.65;;
53781;SDS011;39692;53.114;7.060;2022-08-30T00:58:41;6.60;;;4.65;;
53781;SDS011;39692;53.114;7.060;2022-08-30T01:01:10;6.60;;;4.15;;
53781;SDS011;39692;53.114;7.060;2022-08-30T01:03:36;4.90;;;3.70;;
53781;SDS011;39692;53.114;7.060;2022-08-30T01:06:03;5.30;;;4.00;;
53781;SDS011;39692;53.114;7.060;2022-08-30T01:08:29;4.57;;;3.67;;
53781;SDS011;39692;53.114;7.060;2022-08-30T01:10:55;5.22;;;4.07;;
53781;SDS011;39692;53.114;7.060;2022-08-30T01:13:22;7.13;;;4.35;;
53781;SDS011;39692;53.114;7.060;2022-08-30T01:15:51;4.88;;;4.18;;
53781;SDS011;39692;53.114;7.060;2022-08-30T01:18:18;5.43;;;4.07;;
53781;SDS011;39692;53.114;7.060;2022-08-30T01:23:17;7.15;;;3.35;;
53781;SDS011;39692;53.114;7.060;2022-08-30T01:25:45;6.38;;;4.55;;
53781;SDS011;39692;53.114;7.060;2022-08-30T01:28:15;6.25;;;4.18;;
53781;SDS011;39692;53.114;7.060;2022-08-30T01:30:45;4.97;;;4.13;;
53781;SDS011;39692;53.114;7.060;2022-08-30T01:33:11;5.40;;;4.32;;
53781;SDS011;39692;53.114;7.060;2022-08-30T01:35:48;5.97;;;4.47;;
53781;SDS011;39692;53.114;7.060;2022-08-30T01:38:18;6.20;;;4.35;;
53781;SDS011;39692;53.114;7.060;2022-08-30T01:40:46;5.90;;;4.45;;
53781;SDS011;39692;53.114;7.060;2022-08-30T01:43:13;6.22;;;4.82;;
53781;SDS011;39692;53.114;7.060;2022-08-30T01:45:41;5.68;;;4.20;;
53781;SDS011;39692;53.114;7.060;2022-08-30T01:48:07;7.03;;;4.32;;
53781;SDS011;39692;53.114;7.060;2022-08-30T01:50:36;6.53;;;5.00;;
53781;SDS011;39692;53.114;7.060;2022-08-30T01:53:03;6.75;;;5.63;;
53781;SDS011;39692;53.114;7.060;2022-08-30T01:55:29;7.93;;;6.00;;
53781;SDS011;39692;53.114;7.060;2022-08-30T01:57:55;6.80;;;5.90;;
53781;SDS011;39692;53.114;7.060;2022-08-30T02:00:21;6.18;;;4.85;;
53781;SDS011;39692;53.114;7.060;2022-08-30T02:02:47;7.40;;;4.65;;
53781;SDS011;39692;53.114;7.060;2022-08-30T02:05:13;7.03;;;5.10;;
53781;SDS011;39692;53.114;7.060;2022-08-30T02:07:40;7.22;;;6.10;;
53781;SDS011;39692;53.114;7.060;2022-08-30T02:10:06;7.50;;;6.28;;
53781;SDS011;39692;53.114;7.060;2022-08-30T02:12:32;6.90;;;5.82;;
53781;SDS011;39692;53.114;7.060;2022-08-30T02:14:58;6.82;;;5.40;;
53781;SDS011;39692;53.114;7.060;2022-08-30T02:17:24;9.32;;;6.45;;
53781;SDS011;39692;53.114;7.060;2022-08-30T02:19:50;8.00;;;5.68;;
53781;SDS011;39692;53.114;7.060;2022-08-30T02:22:16;6.57;;;5.88;;
53781;SDS011;39692;53.114;7.060;2022-08-30T02:24:42;6.05;;;5.32;;
53781;SDS011;39692;53.114;7.060;2022-08-30T02:27:08;5.18;;;4.35;;
53781;SDS011;39692;53.114;7.060;2022-08-30T02:29:33;4.07;;;3.53;;
53781;SDS011;39692;53.114;7.060;2022-08-30T02:31:59;3.85;;;3.25;;
53781;SDS011;39692;53.114;7.060;2022-08-30T02:34:25;5.25;;;4.40;;
53781;SDS011;39692;53.114;7.060;2022-08-30T02:36:50;6.15;;;4.85;;
53781;SDS011;39692;53.114;7.060;2022-08-30T02:39:16;6.53;;;5.30;;
53781;SDS011;39692;53.114;7.060;2022-08-30T02:41:42;6.00;;;4.53;;
53781;SDS011;39692;53.114;7.060;2022-08-30T02:44:08;5.20;;;4.68;;
53781;SDS011;39692;53.114;7.060;2022-08-30T02:46:35;7.32;;;4.85;;
53781;SDS011;39692;53.114;7.060;2022-08-30T02:49:01;5.38;;;4.25;;
53781;SDS011;39692;53.114;7.060;2022-08-30T02:51:26;5.25;;;4.40;;
53781;SDS011;39692;53.114;7.060;2022-08-30T02:53:52;6.40;;;4.50;;
53781;SDS011;39692;53.114;7.060;2022-08-30T02:56:18;7.43;;;5.85;;
53781;SDS011;39692;53.114;7.060;2022-08-30T02:58:43;7.05;;;5.38;;
53781;SDS011;39692;53.114;7.060;2022-08-30T03:01:11;6.53;;;5.80;;
53781;SDS011;39692;53.114;7.060;2022-08-30T03:03:38;6.82;;;6.00;;
53781;SDS011;39692;53.114;7.060;2022-08-30T03:06:05;6.85;;;5.60;;
53781;SDS011;39692;53.114;7.060;2022-08-30T03:08:31;6.10;;;4.90;;
53781;SDS011;39692;53.114;7.060;2022-08-30T03:10:57;5.70;;;5.10;;
53781;SDS011;39692;53.114;7.060;2022-08-30T03:13:23;6.07;;;5.47;;
53781;SDS011;39692;53.114;7.060;2022-08-30T03:15:49;6.55;;;4.60;;
53781;SDS011;39692;53.114;7.060;2022-08-30T03:18:16;7.10;;;5.45;;
53781;SDS011;39692;53.114;7.060;2022-08-30T03:20:42;7.45;;;5.95;;
53781;SDS011;39692;53.114;7.060;2022-08-30T03:23:08;6.93;;;6.00;;
53781;SDS011;39692;53.114;7.060;2022-08-30T03:25:34;6.25;;;5.65;;
53781;SDS011;39692;53.114;7.060;2022-08-30T03:28:00;6.78;;;5.90;;
53781;SDS011;39692;53.114;7.060;2022-08-30T03:30:26;7.75;;;5.60;;
53781;SDS011;39692;53.114;7.060;2022-08-30T03:32:51;6.72;;;5.43;;
53781;SDS011;39692;53.114;7.060;2022-08-30T03:35:17;7.03;;;5.68;;
53781;SDS011;39692;53.114;7.060;2022-08-30T03:37:44;5.82;;;5.22;;
53781;SDS011;39692;53.114;7.060;2022-08-30T03:40:10;7.40;;;5.38;;
53781;SDS011;39692;53.114;7.060;2022-08-30T03:42:38;7.80;;;5.68;;
53781;SDS011;39692;53.114;7.060;2022-08-30T03:45:05;10.00;;;6.10;;
53781;SDS011;39692;53.114;7.060;2022-08-30T03:47:32;6.07;;;5.13;;
53781;SDS011;39692;53.114;7.060;2022-08-30T03:49:57;7.15;;;5.70;;
53781;SDS011;39692;53.114;7.060;2022-08-30T03:52:24;6.85;;;5.40;;
53781;SDS011;39692;53.114;7.060;2022-08-30T03:54:49;6.75;;;5.38;;
53781;SDS011;39692;53.114;7.060;2022-08-30T03:57:15;7.78;;;5.40;;
53781;SDS011;39692;53.114;7.060;2022-08-30T03:59:41;7.53;;;5.75;;
53781;SDS011;39692;53.114;7.060;2022-08-30T04:02:06;7.63;;;5.03;;
53781;SDS011;39692;53.114;7.060;2022-08-30T04:04:32;7.28;;;5.07;;
53781;SDS011;39692;53.114;7.060;2022-08-30T04:06:58;8.50;;;5.63;;
53781;SDS011;39692;53.114;7.060;2022-08-30T04:09:23;10.10;;;5.07;;
53781;SDS011;39692;53.114;7.060;2022-08-30T04:11:49;7.13;;;5.40;;
53781;SDS011;39692;53.114;7.060;2022-08-30T04:14:15;7.45;;;4.50;;
53781;SDS011;39692;53.114;7.060;2022-08-30T04:16:41;6.57;;;4.72;;
53781;SDS011;39692;53.114;7.060;2022-08-30T04:19:07;6.60;;;4.80;;
53781;SDS011;39692;53.114;7.060;2022-08-30T04:21:33;6.43;;;5.22;;
53781;SDS011;39692;53.114;7.060;2022-08-30T04:23:59;7.03;;;5.10;;
53781;SDS011;39692;53.114;7.060;2022-08-30T04:26:24;6.93;;;4.85;;
53781;SDS011;39692;53.114;7.060;2022-08-30T04:28:52;7.75;;;3.47;;
53781;SDS011;39692;53.114;7.060;2022-08-30T04:31:18;5.25;;;3.83;;
53781;SDS011;39692;53.114;7.060;2022-08-30T04:33:45;4.68;;;4.18;;
53781;SDS011;39692;53.114;7.060;2022-08-30T04:36:11;6.82;;;4.85;;
53781;SDS011;39692;53.114;7.060;2022-08-30T04:38:38;7.28;;;4.93;;
53781;SDS011;39692;53.114;7.060;2022-08-30T04:41:12;6.57;;;4.93;;
53781;SDS011;39692;53.114;7.060;2022-08-30T04:43:43;6.30;;;4.78;;
53781;SDS011;39692;53.114;7.060;2022-08-30T04:46:10;6.90;;;4.97;;
53781;SDS011;39692;53.114;7.060;2022-08-30T04:48:37;6.13;;;5.13;;
53781;SDS011;39692;53.114;7.060;2022-08-30T04:51:04;6.30;;;5.15;;
53781;SDS011;39692;53.114;7.060;2022-08-30T04:53:35;7.63;;;5.15;;
53781;SDS011;39692;53.114;7.060;2022-08-30T04:56:05;6.57;;;4.63;;
53781;SDS011;39692;53.114;7.060;2022-08-30T04:58:32;7.35;;;4.95;;
53781;SDS011;39692;53.114;7.060;2022-08-30T05:00:58;8.43;;;4.43;;
53781;SDS011;39692;53.114;7.060;2022-08-30T05:03:24;5.28;;;4.22;;
53781;SDS011;39692;53.114;7.060;2022-08-30T05:05:49;6.47;;;4.78;;
53781;SDS011;39692;53.114;7.060;2022-08-30T05:08:16;4.95;;;3.85;;
53781;SDS011;39692;53.114;7.060;2022-08-30T05:10:44;7.32;;;4.13;;
53781;SDS011;39692;53.114;7.060;2022-08-30T05:13:12;5.10;;;3.90;;
53781;SDS011;39692;53.114;7.060;2022-08-30T05:15:40;5.78;;;4.60;;
53781;SDS011;39692;53.114;7.060;2022-08-30T05:18:06;5.88;;;4.00;;
53781;SDS011;39692;53.114;7.060;2022-08-30T05:20:33;4.43;;;3.88;;
53781;SDS011;39692;53.114;7.060;2022-08-30T05:22:59;4.85;;;3.97;;
53781;SDS011;39692;53.114;7.060;2022-08-30T05:25:26;5.07;;;4.13;;
53781;SDS011;39692;53.114;7.060;2022-08-30T05:27:55;5.97;;;4.43;;
53781;SDS011;39692;53.114;7.060;2022-08-30T05:30:22;5.88;;;3.60;;
53781;SDS011;39692;53.114;7.060;2022-08-30T05:32:49;6.30;;;4.60;;
53781;SDS011;39692;53.114;7.060;2022-08-30T05:35:16;6.47;;;4.95;;
53781;SDS011;39692;53.114;7.060;2022-08-30T05:37:43;7.45;;;5.68;;
53781;SDS011;39692;53.114;7.060;2022-08-30T05:40:10;5.88;;;5.35;;
53781;SDS011;39692;53.114;7.060;2022-08-30T05:42:36;5.35;;;4.85;;
53781;SDS011;39692;53.114;7.060;2022-08-30T05:45:05;10.20;;;5.80;;
53781;SDS011;39692;53.114;7.060;2022-08-30T05:47:32;6.80;;;5.03;;
53781;SDS011;39692;53.114;7.060;2022-08-30T05:49:57;8.32;;;5.88;;
53781;SDS011;39692;53.114;7.060;2022-08-30T05:52:23;5.90;;;5.28;;
53781;SDS011;39692;53.114;7.060;2022-08-30T05:54:52;6.10;;;5.50;;
53781;SDS011;39692;53.114;7.060;2022-08-30T05:57:20;7.18;;;5.43;;
53781;SDS011;39692;53.114;7.060;2022-08-30T05:59:46;7.82;;;5.45;;
53781;SDS011;39692;53.114;7.060;2022-08-30T06:02:12;7.05;;;5.43;;
53781;SDS011;39692;53.114;7.060;2022-08-30T06:04:38;6.10;;;5.50;;
53781;SDS011;39692;53.114;7.060;2022-08-30T06:07:04;5.68;;;5.10;;
53781;SDS011;39692;53.114;7.060;2022-08-30T06:09:30;7.40;;;5.25;;
53781;SDS011;39692;53.114;7.060;2022-08-30T06:11:56;6.95;;;5.70;;
53781;SDS011;39692;53.114;7.060;2022-08-30T06:14:22;8.52;;;5.95;;
53781;SDS011;39692;53.114;7.060;2022-08-30T06:16:48;6.13;;;5.45;;
53781;SDS011;39692;53.114;7.060;2022-08-30T06:19:14;6.78;;;5.40;;
53781;SDS011;39692;53.114;7.060;2022-08-30T06:21:41;7.18;;;6.40;;
53781;SDS011;39692;53.114;7.060;2022-08-30T06:24:08;7.40;;;5.45;;
53781;SDS011;39692;53.114;7.060;2022-08-30T06:26:42;5.57;;;5.07;;
53781;SDS011;39692;53.114;7.060;2022-08-30T06:31:36;5.38;;;4.68;;
53781;SDS011;39692;53.114;7.060;2022-08-30T06:34:03;5.28;;;4.53;;
53781;SDS011;39692;53.114;7.060;2022-08-30T06:36:29;6.38;;;4.68;;
53781;SDS011;39692;53.114;7.060;2022-08-30T06:38:56;4.90;;;4.32;;
53781;SDS011;39692;53.114;7.060;2022-08-30T06:41:27;6.00;;;4.13;;
53781;SDS011;39692;53.114;7.060;2022-08-30T06:43:54;5.38;;;4.35;;
53781;SDS011;39692;53.114;7.060;2022-08-30T06:46:22;5.10;;;3.78;;
53781;SDS011;39692;53.114;7.060;2022-08-30T06:48:54;4.80;;;3.78;;
53781;SDS011;39692;53.114;7.060;2022-08-30T06:51:24;5.20;;;3.50;;
53781;SDS011;39692;53.114;7.060;2022-08-30T06:53:52;6.55;;;3.70;;
53781;SDS011;39692;53.114;7.060;2022-08-30T06:56:18;5.03;;;3.58;;
53781;SDS011;39692;53.114;7.060;2022-08-30T06:58:45;5.00;;;2.90;;
53781;SDS011;39692;53.114;7.060;2022-08-30T07:01:11;3.83;;;2.75;;
53781;SDS011;39692;53.114;7.060;2022-08-30T07:03:39;3.72;;;2.60;;
53781;SDS011;39692;53.114;7.060;2022-08-30T07:06:05;5.43;;;2.20;;
53781;SDS011;39692;53.114;7.060;2022-08-30T07:08:31;3.72;;;2.15;;
53781;SDS011;39692;53.114;7.060;2022-08-30T07:10:57;5.05;;;1.65;;
53781;SDS011;39692;53.114;7.060;2022-08-30T07:13:23;4.40;;;1.83;;
53781;SDS011;39692;53.114;7.060;2022-08-30T07:15:50;2.65;;;1.50;;
53781;SDS011;39692;53.114;7.060;2022-08-30T07:18:16;4.20;;;1.70;;
53781;SDS011;39692;53.114;7.060;2022-08-30T07:21:05;4.10;;;1.75;;
53781;SDS011;39692;53.114;7.060;2022-08-30T07:23:31;3.40;;;1.52;;
53781;SDS011;39692;53.114;7.060;2022-08-30T07:25:57;2.53;;;1.33;;
53781;SDS011;39692;53.114;7.060;2022-08-30T07:28:23;2.58;;;1.20;;
53781;SDS011;39692;53.114;7.060;2022-08-30T07:30:49;2.60;;;1.05;;
53781;SDS011;39692;53.114;7.060;2022-08-30T07:33:15;2.30;;;1.17;;
53781;SDS011;39692;53.114;7.060;2022-08-30T07:35:41;2.85;;;1.33;;
53781;SDS011;39692;53.114;7.060;2022-08-30T07:38:11;4.10;;;1.10;;
53781;SDS011;39692;53.114;7.060;2022-08-30T07:40:37;3.97;;;1.00;;
53781;SDS011;39692;53.114;7.060;2022-08-30T07:43:03;1.90;;;0.80;;
53781;SDS011;39692;53.114;7.060;2022-08-30T07:45:29;2.78;;;0.93;;
53781;SDS011;39692;53.114;7.060;2022-08-30T07:47:55;2.17;;;1.00;;
53781;SDS011;39692;53.114;7.060;2022-08-30T07:50:21;2.35;;;1.05;;
53781;SDS011;39692;53.114;7.060;2022-08-30T07:52:48;2.35;;;1.10;;
53781;SDS011;39692;53.114;7.060;2022-08-30T07:55:14;2.15;;;0.85;;
53781;SDS011;39692;53.114;7.060;2022-08-30T07:57:40;3.47;;;1.13;;
53781;SDS011;39692;53.114;7.060;2022-08-30T08:00:06;3.08;;;1.02;;
53781;SDS011;39692;53.114;7.060;2022-08-30T08:02:33;3.60;;;0.98;;
53781;SDS011;39692;53.114;7.060;2022-08-30T08:05:01;3.70;;;1.00;;
53781;SDS011;39692;53.114;7.060;2022-08-30T08:07:29;3.47;;;0.80;;
53781;SDS011;39692;53.114;7.060;2022-08-30T08:09:55;2.55;;;1.10;;
53781;SDS011;39692;53.114;7.060;2022-08-30T08:12:21;5.30;;;1.00;;
53781;SDS011;39692;53.114;7.060;2022-08-30T08:14:47;3.28;;;1.00;;
53781;SDS011;39692;53.114;7.060;2022-08-30T08:17:14;2.72;;;0.93;;
53781;SDS011;39692;53.114;7.060;2022-08-30T08:19:40;1.85;;;0.80;;
53781;SDS011;39692;53.114;7.060;2022-08-30T08:22:06;2.58;;;0.98;;
53781;SDS011;39692;53.114;7.060;2022-08-30T08:24:32;3.33;;;1.00;;
53781;SDS011;39692;53.114;7.060;2022-08-30T08:26:57;2.85;;;1.10;;
53781;SDS011;39692;53.114;7.060;2022-08-30T08:29:23;3.65;;;1.05;;
53781;SDS011;39692;53.114;7.060;2022-08-30T08:31:49;3.83;;;0.95;;
53781;SDS011;39692;53.114;7.060;2022-08-30T08:34:15;2.30;;;0.90;;
53781;SDS011;39692;53.114;7.060;2022-08-30T08:36:43;2.92;;;1.30;;
53781;SDS011;39692;53.114;7.060;2022-08-30T08:39:09;2.03;;;0.90;;
53781;SDS011;39692;53.114;7.060;2022-08-30T08:44:37;1.73;;;0.70;;
53781;SDS011;39692;53.114;7.060;2022-08-30T08:50:03;2.58;;;0.82;;
53781;SDS011;39692;53.114;7.060;2022-08-30T08:55:39;1.70;;;0.80;;
53781;SDS011;39692;53.114;7.060;2022-08-30T08:58:21;2.15;;;0.95;;
53781;SDS011;39692;53.114;7.060;2022-08-30T09:00:59;4.93;;;1.35;;
53781;SDS011;39692;53.114;7.060;2022-08-30T09:03:25;3.13;;;1.27;;
53781;SDS011;39692;53.114;7.060;2022-08-30T09:05:53;2.22;;;0.80;;
53781;SDS011;39692;53.114;7.060;2022-08-30T09:08:20;2.30;;;0.88;;
53781;SDS011;39692;53.114;7.060;2022-08-30T09:10:56;2.45;;;1.08;;
53781;SDS011;39692;53.114;7.060;2022-08-30T09:13:25;2.15;;;0.77;;
53781;SDS011;39692;53.114;7.060;2022-08-30T09:15:52;3.15;;;1.38;;
53781;SDS011;39692;53.114;7.060;2022-08-30T09:18:19;1.73;;;0.93;;
53781;SDS011;39692;53.114;7.060;2022-08-30T09:21:12;2.10;;;0.75;;
53781;SDS011;39692;53.114;7.060;2022-08-30T09:23:48;2.67;;;0.95;;
53781;SDS011;39692;53.114;7.060;2022-08-30T09:26:29;5.88;;;1.20;;
53781;SDS011;39692;53.114;7.060;2022-08-30T09:28:56;3.33;;;0.93;;
53781;SDS011;39692;53.114;7.060;2022-08-30T09:31:30;1.92;;;0.85;;
53781;SDS011;39692;53.114;7.060;2022-08-30T09:34:01;2.03;;;0.90;;
53781;SDS011;39692;53.114;7.060;2022-08-30T09:39:04;3.20;;;1.13;;
53781;SDS011;39692;53.114;7.060;2022-08-30T09:41:43;2.85;;;0.90;;
53781;SDS011;39692;53.114;7.060;2022-08-30T09:44:17;2.00;;;0.90;;
53781;SDS011;39692;53.114;7.060;2022-08-30T09:46:49;1.90;;;0.90;;
53781;SDS011;39692;53.114;7.060;2022-08-30T10:02:31;2.72;;;1.10;;
53781;SDS011;39692;53.114;7.060;2022-08-30T10:05:24;3.63;;;0.95;;
53781;SDS011;39692;53.114;7.060;2022-08-30T10:10:49;2.85;;;1.08;;
53781;SDS011;39692;53.114;7.060;2022-08-30T10:21:44;1.55;;;0.93;;
53781;SDS011;39692;53.114;7.060;2022-08-30T10:24:17;2.17;;;1.00;;
53781;SDS011;39692;53.114;7.060;2022-08-30T10:29:22;3.35;;;0.90;;
53781;SDS011;39692;53.114;7.060;2022-08-30T10:31:55;1.88;;;0.88;;
53781;SDS011;39692;53.114;7.060;2022-08-30T10:34:40;3.00;;;1.10;;
53781;SDS011;39692;53.114;7.060;2022-08-30T10:37:14;1.88;;;0.70;;
53781;SDS011;39692;53.114;7.060;2022-08-30T10:39:48;3.08;;;0.90;;
53781;SDS011;39692;53.114;7.060;2022-08-30T10:42:18;3.15;;;0.90;;
53781;SDS011;39692;53.114;7.060;2022-08-30T10:44:48;2.65;;;0.98;;
53781;SDS011;39692;53.114;7.060;2022-08-30T10:47:32;4.25;;;1.35;;
53781;SDS011;39692;53.114;7.060;2022-08-30T10:50:03;1.88;;;0.73;;
53781;SDS011;39692;53.114;7.060;2022-08-30T10:55:23;2.05;;;0.98;;
53781;SDS011;39692;53.114;7.060;2022-08-30T10:57:53;3.10;;;1.10;;
53781;SDS011;39692;53.114;7.060;2022-08-30T11:11:19;2.55;;;0.90;;
53781;SDS011;39692;53.114;7.060;2022-08-30T11:14:02;4.88;;;1.17;;
53781;SDS011;39692;53.114;7.060;2022-08-30T11:16:37;1.80;;;0.80;;
53781;SDS011;39692;53.114;7.060;2022-08-30T11:19:27;2.72;;;0.98;;
53781;SDS011;39692;53.114;7.060;2022-08-30T11:22:09;2.88;;;0.70;;
53781;SDS011;39692;53.114;7.060;2022-08-30T11:24:57;2.08;;;0.82;;
53781;SDS011;39692;53.114;7.060;2022-08-30T11:32:59;1.73;;;0.60;;
53781;SDS011;39692;53.114;7.060;2022-08-30T11:35:44;2.07;;;0.57;;
53781;SDS011;39692;53.114;7.060;2022-08-30T11:59:09;1.27;;;0.70;;
53781;SDS011;39692;53.114;7.060;2022-08-30T12:01:48;2.45;;;0.68;;
53781;SDS011;39692;53.114;7.060;2022-08-30T12:06:53;2.08;;;0.80;;
53781;SDS011;39692;53.114;7.060;2022-08-30T12:14:31;2.13;;;0.80;;
53781;SDS011;39692;53.114;7.060;2022-08-30T12:16:59;2.53;;;0.80;;
53781;SDS011;39692;53.114;7.060;2022-08-30T12:19:52;2.67;;;1.35;;
53781;SDS011;39692;53.114;7.060;2022-08-30T12:22:21;2.90;;;0.82;;
53781;SDS011;39692;53.114;7.060;2022-08-30T12:24:47;3.05;;;1.08;;
53781;SDS011;39692;53.114;7.060;2022-08-30T12:27:20;1.95;;;0.85;;
53781;SDS011;39692;53.114;7.060;2022-08-30T12:29:49;2.45;;;1.00;;
53781;SDS011;39692;53.114;7.060;2022-08-30T12:32:18;3.00;;;1.00;;
53781;SDS011;39692;53.114;7.060;2022-08-30T12:35:03;1.38;;;0.70;;
53781;SDS011;39692;53.114;7.060;2022-08-30T12:37:37;1.52;;;0.80;;
53781;SDS011;39692;53.114;7.060;2022-08-30T12:42:32;2.00;;;0.73;;
53781;SDS011;39692;53.114;7.060;2022-08-30T12:45:05;2.92;;;0.90;;
53781;SDS011;39692;53.114;7.060;2022-08-30T12:50:09;4.57;;;0.80;;
53781;SDS011;39692;53.114;7.060;2022-08-30T12:52:42;3.47;;;0.70;;
53781;SDS011;39692;53.114;7.060;2022-08-30T12:57:43;2.33;;;0.60;;
53781;SDS011;39692;53.114;7.060;2022-08-30T13:03:05;1.95;;;0.65;;
53781;SDS011;39692;53.114;7.060;2022-08-30T13:05:58;2.20;;;0.80;;
53781;SDS011;39692;53.114;7.060;2022-08-30T13:11:02;1.77;;;0.80;;
53781;SDS011;39692;53.114;7.060;2022-08-30T13:13:38;2.15;;;0.70;;
53781;SDS011;39692;53.114;7.060;2022-08-30T13:16:11;3.25;;;0.88;;
53781;SDS011;39692;53.114;7.060;2022-08-30T13:18:44;4.03;;;1.20;;
53781;SDS011;39692;53.114;7.060;2022-08-30T13:21:33;2.80;;;0.70;;
53781;SDS011;39692;53.114;7.060;2022-08-30T13:24:03;2.13;;;1.00;;
53781;SDS011;39692;53.114;7.060;2022-08-30T13:26:34;2.95;;;0.80;;
53781;SDS011;39692;53.114;7.060;2022-08-30T13:29:03;5.97;;;1.15;;
53781;SDS011;39692;53.114;7.060;2022-08-30T13:31:30;3.00;;;0.98;;
53781;SDS011;39692;53.114;7.060;2022-08-30T13:33:56;3.28;;;1.30;;
53781;SDS011;39692;53.114;7.060;2022-08-30T13:36:30;2.50;;;1.05;;
53781;SDS011;39692;53.114;7.060;2022-08-30T13:38:58;1.50;;;0.80;;
53781;SDS011;39692;53.114;7.060;2022-08-30T13:41:24;2.70;;;1.10;;
53781;SDS011;39692;53.114;7.060;2022-08-30T13:43:51;2.88;;;1.10;;
53781;SDS011;39692;53.114;7.060;2022-08-30T13:46:17;1.95;;;0.90;;
53781;SDS011;39692;53.114;7.060;2022-08-30T13:48:45;2.47;;;1.20;;
53781;SDS011;39692;53.114;7.060;2022-08-30T13:51:11;1.50;;;0.90;;
53781;SDS011;39692;53.114;7.060;2022-08-30T13:53:37;3.08;;;0.90;;
53781;SDS011;39692;53.114;7.060;2022-08-30T13:56:03;1.90;;;0.90;;
53781;SDS011;39692;53.114;7.060;2022-08-30T13:58:30;2.28;;;1.00;;
53781;SDS011;39692;53.114;7.060;2022-08-30T14:00:56;1.90;;;1.08;;
53781;SDS011;39692;53.114;7.060;2022-08-30T14:03:22;1.30;;;0.77;;
53781;SDS011;39692;53.114;7.060;2022-08-30T14:05:47;2.53;;;0.95;;
53781;SDS011;39692;53.114;7.060;2022-08-30T14:08:14;2.55;;;1.20;;
53781;SDS011;39692;53.114;7.060;2022-08-30T14:10:41;2.25;;;1.10;;
53781;SDS011;39692;53.114;7.060;2022-08-30T14:13:07;3.65;;;1.05;;
53781;SDS011;39692;53.114;7.060;2022-08-30T14:15:36;3.63;;;1.20;;
53781;SDS011;39692;53.114;7.060;2022-08-30T14:18:03;2.90;;;1.20;;
53781;SDS011;39692;53.114;7.060;2022-08-30T14:20:29;3.15;;;1.00;;
53781;SDS011;39692;53.114;7.060;2022-08-30T14:22:55;1.65;;;1.00;;
53781;SDS011;39692;53.114;7.060;2022-08-30T14:25:20;4.63;;;0.95;;
53781;SDS011;39692;53.114;7.060;2022-08-30T14:27:46;1.40;;;0.70;;
53781;SDS011;39692;53.114;7.060;2022-08-30T14:30:12;1.85;;;1.00;;
53781;SDS011;39692;53.114;7.060;2022-08-30T14:32:38;2.78;;;1.15;;
53781;SDS011;39692;53.114;7.060;2022-08-30T14:35:03;2.88;;;0.80;;
53781;SDS011;39692;53.114;7.060;2022-08-30T14:37:29;2.08;;;1.00;;
53781;SDS011;39692;53.114;7.060;2022-08-30T14:39:55;2.13;;;0.90;;
53781;SDS011;39692;53.114;7.060;2022-08-30T14:42:21;2.05;;;0.98;;
53781;SDS011;39692;53.114;7.060;2022-08-30T14:44:46;3.88;;;1.30;;
53781;SDS011;39692;53.114;7.060;2022-08-30T14:47:12;2.30;;;0.80;;
53781;SDS011;39692;53.114;7.060;2022-08-30T14:49:38;2.08;;;1.00;;
53781;SDS011;39692;53.114;7.060;2022-08-30T14:52:04;1.90;;;1.10;;
53781;SDS011;39692;53.114;7.060;2022-08-30T14:54:29;3.13;;;1.05;;
53781;SDS011;39692;53.114;7.060;2022-08-30T14:56:56;2.42;;;1.13;;
53781;SDS011;39692;53.114;7.060;2022-08-30T14:59:22;2.67;;;1.15;;
53781;SDS011;39692;53.114;7.060;2022-08-30T15:01:49;2.72;;;1.10;;
53781;SDS011;39692;53.114;7.060;2022-08-30T15:04:15;3.92;;;0.80;;
53781;SDS011;39692;53.114;7.060;2022-08-30T15:06:42;1.88;;;0.98;;
53781;SDS011;39692;53.114;7.060;2022-08-30T15:09:10;3.90;;;1.13;;
53781;SDS011;39692;53.114;7.060;2022-08-30T15:11:37;2.80;;;1.10;;
53781;SDS011;39692;53.114;7.060;2022-08-30T15:14:03;1.83;;;0.80;;
53781;SDS011;39692;53.114;7.060;2022-08-30T15:16:31;1.33;;;0.80;;
53781;SDS011;39692;53.114;7.060;2022-08-30T15:18:59;2.97;;;1.00;;
53781;SDS011;39692;53.114;7.060;2022-08-30T15:21:26;1.27;;;0.80;;
53781;SDS011;39692;53.114;7.060;2022-08-30T15:23:54;2.88;;;1.13;;
53781;SDS011;39692;53.114;7.060;2022-08-30T15:26:21;1.63;;;1.08;;
53781;SDS011;39692;53.114;7.060;2022-08-30T15:28:47;3.42;;;1.00;;
53781;SDS011;39692;53.114;7.060;2022-08-30T15:31:13;2.55;;;0.90;;
53781;SDS011;39692;53.114;7.060;2022-08-30T15:33:39;2.20;;;0.90;;
53781;SDS011;39692;53.114;7.060;2022-08-30T15:36:05;1.50;;;0.85;;
53781;SDS011;39692;53.114;7.060;2022-08-30T15:38:33;1.88;;;0.93;;
53781;SDS011;39692;53.114;7.060;2022-08-30T15:41:00;3.65;;;1.20;;
53781;SDS011;39692;53.114;7.060;2022-08-30T15:43:29;3.10;;;1.20;;
53781;SDS011;39692;53.114;7.060;2022-08-30T15:45:55;2.92;;;1.30;;
53781;SDS011;39692;53.114;7.060;2022-08-30T15:48:21;4.80;;;1.50;;
53781;SDS011;39692;53.114;7.060;2022-08-30T15:50:54;3.88;;;1.10;;
53781;SDS011;39692;53.114;7.060;2022-08-30T15:53:21;2.58;;;1.10;;
53781;SDS011;39692;53.114;7.060;2022-08-30T15:55:47;2.85;;;1.35;;
53781;SDS011;39692;53.114;7.060;2022-08-30T15:58:12;2.92;;;1.60;;
53781;SDS011;39692;53.114;7.060;2022-08-30T16:00:38;4.72;;;1.73;;
53781;SDS011;39692;53.114;7.060;2022-08-30T16:03:07;2.53;;;1.27;;
53781;SDS011;39692;53.114;7.060;2022-08-30T16:05:33;3.92;;;1.25;;
53781;SDS011;39692;53.114;7.060;2022-08-30T16:07:58;3.75;;;1.67;;
53781;SDS011;39692;53.114;7.060;2022-08-30T16:10:24;3.33;;;1.20;;
53781;SDS011;39692;53.114;7.060;2022-08-30T16:12:50;4.00;;;1.65;;
53781;SDS011;39692;53.114;7.060;2022-08-30T16:15:15;3.78;;;1.40;;
53781;SDS011;39692;53.114;7.060;2022-08-30T16:17:41;2.50;;;1.35;;
53781;SDS011;39692;53.114;7.060;2022-08-30T16:20:07;2.83;;;1.10;;
53781;SDS011;39692;53.114;7.060;2022-08-30T16:22:33;2.95;;;1.17;;
53781;SDS011;39692;53.114;7.060;2022-08-30T16:24:59;3.35;;;0.95;;
53781;SDS011;39692;53.114;7.060;2022-08-30T16:27:27;2.70;;;1.08;;
53781;SDS011;39692;53.114;7.060;2022-08-30T16:29:53;2.67;;;1.10;;
53781;SDS011;39692;53.114;7.060;2022-08-30T16:32:19;3.35;;;1.17;;
53781;SDS011;39692;53.114;7.060;2022-08-30T16:34:44;3.13;;;1.15;;
53781;SDS011;39692;53.114;7.060;2022-08-30T16:37:10;3.00;;;1.35;;
53781;SDS011;39692;53.114;7.060;2022-08-30T16:39:36;2.40;;;1.20;;